CheckWX is a tool to help pilots better visualize weather data.  It is not intended as a substitute for an official pre-flight weather briefing.

19:31:23 UTC

KCGZ METAR
Casa Grande Municipal Airport
Casa Grande, Arizona, USA
Current

35 mins ago

KCGZ 261856Z AUTO 20026G31KT 10SM FEW070 26/05 A2986 RMK AO2 PK WND 19031/1856 SLP099 T02560050 $
Observed
May-26 @ 18:56 UTC
Wind
  • 200° at 26 KTS
  • Gusting to 31 KTS
Visibility
10 SM
Flight Rules
VFR
Cloud Levels
  • Few at 7,000' AGL
Temperature
26°C / 79°F
Dewpoint
C / 41°F
Humidity
26%
Altimeter
29.86" Hg
Pressure
1011.22 hPa
Previous

2 hours ago

KCGZ 261756Z AUTO 17017G20KT 10SM CLR 25/06 A2986 RMK AO2 SLP100 6//// T02500061 10250 20144 $
Observed
May-26 @ 17:56 UTC
Wind
  • 170° at 17 KTS
  • Gusting to 20 KTS
Visibility
10 SM
Flight Rules
VFR
Cloud Levels
  • Clear skies
Temperature
25°C / 77°F
Dewpoint
C / 43°F
Humidity
30%
Altimeter
29.86" Hg
Pressure
1011.22 hPa
Previous

3 hours ago

KCGZ 261656Z AUTO 21013G19KT 10SM FEW085 24/05 A2986 RMK AO2 SLP099 T02440050 $
Observed
May-26 @ 16:56 UTC
Wind
  • 210° at 13 KTS
  • Gusting to 19 KTS
Visibility
10 SM
Flight Rules
VFR
Cloud Levels
  • Few at 8,500' AGL
Temperature
24°C / 75°F
Dewpoint
C / 41°F
Humidity
29%
Altimeter
29.86" Hg
Pressure
1011.22 hPa